Tiempo atmosférico en la estación meteorológica de Vilassar De Dalt, Barcelona (60 m.)



Fecha
DESCASC
Temp. máxima en grados centígrados (hora)
DESCASC
Temp. mínima en grados centígrados (hora)
DESCASC
Temp. media en grados centígrados
DESCASC
Racha de viento máxima en m/sg (hora)
DESCASC
Velocidad máxima media en intervalos de 10 minutos(hora)
DESCASC
Precipitaciones diarias en mm
DESCASC
Precipitaciones de 00:00 a 06:00 en mm
DESCASC
Precipitaciones de 06:00 a 12:00 en mm
DESCASC
Precipitaciones de 12:00 a 18:00 en mm
DESCASC
Precipitaciones de 18:00 a 24:00 en mm
DESCASC
05-12-2019 13.5 (11:30) 10.8 (14:50) 12.2 17.5 (11:20) 9.44 (11:40) 18.2 9.4 1.6 6.4 0.8
04-12-2019 13.9 (00:00) 10.8 (21:10) 12.3 16.94 (04:40) 8.06 (02:20) 74.2 0 8.2 26 40
03-12-2019 14.2 (12:30) 7.6 (00:00) 10.9 17.22 (23:00) 7.5 (23:20) 0 0 0 0 0
02-12-2019 16.5 (13:50) 8.3 (00:00) 12.4 3.89 (06:20) 2.22 (05:40) 0 0 0 0 0
01-12-2019 18.6 (14:00) 10.4 (00:00) 14.5 4.44 (14:20) 2.5 (19:40) 0 0 0 0 0
30-11-2019 19.2 (12:00) 11.1 (00:00) 15.2 6.39 (16:00) 4.17 (16:00) 0 0 0 0 0
29-11-2019 17.7 (11:10) 12.3 (00:00) 15 8.06 (00:20) 4.44 (00:40) 0 0 0 0 0
28-11-2019 20 (14:20) 11.4 (00:00) 15.7 10.83 (16:40) 5.83 (16:50) 0 0 0 0 0
27-11-2019 19.4 (13:50) 12.8 (00:00) 16.1 13.89 (07:40) 7.22 (07:30) 0 0 0 0 0
26-11-2019 19.9 (13:40) 9.6 (00:00) 14.8 9.17 (14:40) 4.72 (14:40) 0 0 0 0 0
25-11-2019 18.3 (12:10) 9.3 (00:00) 13.8 8.61 (05:30) 5.28 (05:40) 0 0 0 0 0
24-11-2019 17.2 (12:10) 9.3 (00:00) 13.3 11.94 (00:10) 6.67 (00:10) 0 0 0 0 0
23-11-2019 17.3 (13:00) 10.9 (00:00) 14.1 15.83 (14:20) 7.5 (13:30) 13.4 13.4 0 0 0
22-11-2019 18 (12:10) 10 (00:00) 14 11.39 (20:30) 6.11 (20:30) 11 0 0.2 0 10.8
21-11-2019 16.2 (12:10) 8.2 (00:00) 12.2 8.89 (18:10) 5.56 (14:30) 0 0 0 0 0
20-11-2019 16.2 (13:50) 5.2 (00:00) 10.7 5.28 (16:00) 2.78 (11:30) 0 0 0 0 0
19-11-2019 15 (12:20) 6.5 (00:00) 10.8 8.33 (07:50) 4.17 (05:40) 0 0 0 0 0
18-11-2019 14.8 (13:50) 8.5 (00:00) 11.7 9.72 (11:20) 5.28 (11:10) 0 0 0 0 0
17-11-2019 14.9 (12:50) 4.6 (00:00) 9.7 9.72 (01:30) 4.72 (00:40) 0 0 0 0 0
16-11-2019 15.8 (12:10) 7.1 (00:00) 11.5 10 (21:50) 5 (22:00) 0 0 0 0 0
15-11-2019 13.5 (12:50) 6.2 (00:00) 9.8 10 (16:20) 5 (16:20) 0 0 0 0 0
14-11-2019 14.5 (10:10) 5.9 (00:00) 10.2 13.06 (11:40) 6.11 (11:50) 2.8 0.2 2.6 0 0
13-11-2019 16.2 (15:10) 10.3 (00:00) 13.3 6.39 (15:30) 3.89 (15:30) 0 0 0 0 0
12-11-2019 16.5 (12:30) 9 (00:00) 12.8 5.56 (11:30) 3.33 (11:50) 0 0 0 0 0
11-11-2019 18.4 (15:20) 7.7 (05:20) 13 10.83 (06:30) 5.56 (06:40) 0 0 0 0 0
10-11-2019 14.6 (13:40) 8.3 (00:00) 11.5 6.94 (01:50) 3.61 (04:30) 6 5.2 0.8 0 0
09-11-2019 18.3 (12:30) 5.9 (00:00) 12.1 11.94 (20:10) 6.11 (20:10) 0 0 0 0 0
08-11-2019 15.6 (14:00) 7.4 (00:00) 11.5 12.78 (17:40) 5.83 (17:40) 0 0 0 0 0
07-11-2019 18.8 (14:30) 10.4 (00:00) 14.6 8.61 (02:30) 4.72 (05:30) 0 0 0 0 0
06-11-2019 19.3 (14:40) 10.2 (00:00) 14.7 11.94 (01:50) 6.11 (04:40) 0 0 0 0 0

Gráficas

Temp. máximas Temp. mínimas Temp. medias Precipitaciones Rachas de viento máximas Velocidades máximas media en intervalos de 10 minutos

Datos horarios

Fecha y hora oficial Temperatura (ºC) Velocidad del viento (km/h) Dirección del viento Racha (km/h) Dirección de racha Precipitación (mm) Presión (hPa) Tendencia (hPa) Humedad (%)
2019-12-05 23:00:00 12.2 6 Norte 20 Nordeste 0 -- -- 76
2019-12-05 22:00:00 12.3 13 Norte 34 Nordeste 0 -- -- 75
2019-12-05 21:00:00 12.3 17 Norte 35 Nordeste 0 -- -- 73
2019-12-05 20:00:00 12.4 14 Norte 35 Nordeste 0.4 -- -- 72
2019-12-05 19:00:00 12.2 18 Nordeste 42 Norte 0.4 -- -- 77
2019-12-05 18:00:00 11.7 17 Norte 39 Norte 0 -- -- 81
2019-12-05 17:00:00 11.6 19 Norte 42 Norte 0.4 -- -- 80
2019-12-05 16:00:00 10.9 18 Norte 47 Nordeste 1.8 -- -- 85
2019-12-05 15:00:00 11.1 22 Norte 50 Nordeste 3.8 -- -- 84
2019-12-05 14:00:00 12.6 26 Norte 49 Norte 0.4 -- -- 77
2019-12-05 13:00:00 12.7 27 Norte 59 Nordeste 0 -- -- 73
2019-12-05 12:00:00 13.1 25 Nordeste 63 Nordeste 0 -- -- 69
2019-12-05 11:00:00 12.9 28 Norte 62 Nordeste 0 -- -- 72
2019-12-05 10:00:00 12 21 Norte 51 Norte 0 -- -- 77
2019-12-05 09:00:00 11.7 23 Norte 60 Nordeste 0.4 -- -- 81
2019-12-05 08:00:00 11.5 19 Norte 49 Noroeste 0.4 -- -- 84
2019-12-05 07:00:00 11.3 19 Norte 42 Nordeste 0.8 -- -- 86
2019-12-05 06:00:00 11.4 19 Norte 39 Nordeste 2.2 -- -- 88
2019-12-05 05:00:00 11.2 21 Norte 45 Nordeste 2.8 -- -- 88
2019-12-05 04:00:00 11.4 19 Norte 45 Nordeste 1.2 -- -- 86
2019-12-05 03:00:00 11.7 21 Nordeste 44 Nordeste 1 -- -- 84
2019-12-05 02:00:00 11.5 22 Nordeste 45 Nordeste 1.2 -- -- 86
2019-12-05 01:00:00 11.7 21 Nordeste 46 Nordeste 1 -- -- 87
2019-12-05 00:00:00 11.6 21 Nordeste 46 Nordeste 1 -- -- 88
2019-12-04 23:00:00 11.7 19 Nordeste 38 Norte 6.8 -- -- 91
2019-12-04 22:00:00 11.4 13 Nordeste 30 Nordeste 6.4 -- -- 93
2019-12-04 21:00:00 11.1 15 Nordeste 42 Nordeste 7.4 -- -- 91
2019-12-04 20:00:00 11.5 17 Nordeste 42 Nordeste 9.4 -- -- 92
2019-12-04 19:00:00 11.2 9 Norte 53 Nordeste 9 -- -- 90
2019-12-04 18:00:00 12.2 22 Nordeste 50 Nordeste 2.2 -- -- 88
2019-12-04 17:00:00 12 21 Nordeste 58 Este 3 -- -- 90
2019-12-04 16:00:00 10.9 23 Este 51 Nordeste 12.2 -- -- 91
2019-12-04 15:00:00 11.7 16 Nordeste 61 Este 3.8 -- -- 89
2019-12-04 14:00:00 12.2 24 Nordeste 59 Nordeste 2 -- -- 86
2019-12-04 13:00:00 12 19 Nordeste 46 Nordeste 2.8 -- -- 88
2019-12-04 12:00:00 11.9 19 Nordeste 50 Nordeste 3 -- -- 89
2019-12-04 11:00:00 12.5 23 Nordeste 57 Nordeste 0.6 -- -- 85
2019-12-04 10:00:00 12 22 Nordeste 59 Nordeste 2.2 -- -- 87
2019-12-04 09:00:00 11.9 23 Nordeste 59 Norte 2 -- -- 86
2019-12-04 08:00:00 12.2 23 Nordeste 60 Norte 0.4 -- -- 82
2019-12-04 07:00:00 12.7 25 Nordeste 55 Nordeste 0 -- -- 80
2019-12-04 06:00:00 12.8 25 Nordeste 55 Nordeste 0 -- -- 78
2019-12-04 05:00:00 12.3 23 Nordeste 61 Nordeste 0 -- -- 82
2019-12-04 04:00:00 13 20 Nordeste 51 Nordeste 0 -- -- 77
2019-12-04 03:00:00 13.1 22 Nordeste 55 Nordeste 0 -- -- 76
2019-12-04 02:00:00 13.3 23 Nordeste 47 Nordeste 0 -- -- 74
2019-12-04 01:00:00 13.5 23 Nordeste 59 Nordeste 0 -- -- 72
2019-12-04 00:00:00 13.9 26 Nordeste 53 Noroeste 0 -- -- 70
2019-12-03 23:00:00 14 22 Nordeste 62 Norte 0 -- -- 68
2019-12-03 22:00:00 13.4 18 Nordeste 44 Norte 0 -- -- 69
2019-12-03 21:00:00 13.3 16 Nordeste 46 Nordeste 0 -- -- 69
2019-12-03 20:00:00 13.5 19 Nordeste 52 Nordeste 0 -- -- 67
2019-12-03 19:00:00 13.4 21 Nordeste 42 Nordeste 0 -- -- 66
2019-12-03 18:00:00 13.1 21 Nordeste 44 Nordeste 0 -- -- 65
2019-12-03 17:00:00 13.5 16 Nordeste 35 Nordeste 0 -- -- 64
2019-12-03 16:00:00 13.6 13 Nordeste 33 Nordeste 0 -- -- 63
2019-12-03 15:00:00 13.6 19 Nordeste 39 Nordeste 0 -- -- 60
2019-12-03 14:00:00 14 14 Nordeste 36 Este 0 -- -- 58
2019-12-03 13:00:00 13 3 Sudeste 19 Nordeste 0 -- -- 61
2019-12-03 12:00:00 13.8 6 Norte 15 Norte 0 -- -- 54
2019-12-03 11:00:00 10.8 3 Norte 12 Nordeste 0 -- -- 67
2019-12-03 10:00:00 9.1 8 Norte 23 Norte 0 -- -- 73
2019-12-03 09:00:00 8.4 3 Nordeste 12 Norte 0 -- -- 76
2019-12-03 08:00:00 7.6 2 Noroeste 9 Oeste 0 -- -- 77
2019-12-03 07:00:00 8.4 3 Oeste 10 Norte 0 -- -- 69
2019-12-03 06:00:00 8.3 5 Norte 9 Norte 0 -- -- 74
2019-12-03 05:00:00 8.8 3 Norte 7 Norte 0 -- -- 78
2019-12-03 04:00:00 8.2 0 Calma 10 Noroeste 0 -- -- 76
2019-12-03 03:00:00 8 4 Noroeste 9 Nordeste 0 -- -- 82
2019-12-03 02:00:00 7.8 3 Nordeste 7 Noroeste 0 -- -- 81
2019-12-03 01:00:00 8 0 Calma 8 Nordeste 0 -- -- 81
2019-12-03 00:00:00 8.3 2 Norte 6 Oeste 0 -- -- 82
2019-12-02 23:00:00 8.8 2 Noroeste 6 Noroeste 0 -- -- 80
2019-12-02 22:00:00 9.5 2 Noroeste 7 Noroeste 0 -- -- 76
2019-12-02 21:00:00 10.2 3 Norte 9 Norte 0 -- -- 72
2019-12-02 20:00:00 9.9 0 Calma 6 Noroeste 0 -- -- 68
2019-12-02 19:00:00 10.8 4 Noroeste 6 Noroeste 0 -- -- 69
2019-12-02 18:00:00 11 0 Calma 5 Noroeste 0 -- -- 68
2019-12-02 17:00:00 13.9 3 Sudoeste 9 Sudoeste 0 -- -- 63
2019-12-02 16:00:00 14.6 4 Sudoeste 11 Sudoeste 0 -- -- 60
2019-12-02 15:00:00 15.2 5 Sudoeste 12 Sur 0 -- -- 56
2019-12-02 14:00:00 16.2 5 Sur 10 Sur 0 -- -- 55
2019-12-02 13:00:00 14 6 Sudoeste 12 Sudoeste 0 -- -- 62
2019-12-02 12:00:00 13.8 3 Sudoeste 8 Sur 0 -- -- 60
2019-12-02 11:00:00 13.5 3 Sudeste 8 Sudeste 0 -- -- 58
2019-12-02 10:00:00 12.7 2 Norte 9 Norte 0 -- -- 61
2019-12-02 09:00:00 11.3 3 Noroeste 9 Noroeste 0 -- -- 67
2019-12-02 08:00:00 9.7 2 Norte 10 Noroeste 0 -- -- 69
2019-12-02 07:00:00 10.2 5 Norte 14 Norte 0 -- -- 69
2019-12-02 06:00:00 10.4 8 Norte 14 Norte 0 -- -- 66
2019-12-02 05:00:00 9.6 5 Norte 12 Noroeste 0 -- -- 72
2019-12-02 04:00:00 10.4 5 Noroeste 11 Noroeste 0 -- -- 69
2019-12-02 03:00:00 11 6 Norte 13 Noroeste 0 -- -- 74
2019-12-02 02:00:00 11.3 5 Noroeste 13 Norte 0 -- -- 75
2019-12-02 01:00:00 11.2 5 Norte 9 Noroeste 0 -- -- 83
2019-12-02 00:00:00 10.6 4 Noroeste 6 Noroeste 0 -- -- 86
2019-12-01 23:00:00 11.3 5 Noroeste 7 Noroeste 0 -- -- 86
2019-12-01 22:00:00 12.2 0 Calma 7 Norte 0 -- -- 85
2019-12-01 21:00:00 13.3 4 Noroeste 14 Este 0 -- -- 83
2019-12-01 20:00:00 13.7 7 Este 16 Este 0 -- -- 81
2019-12-01 19:00:00 13.6 5 Este 12 Este 0 -- -- 84
2019-12-01 18:00:00 13.7 6 Sudeste 13 Este 0 -- -- 86
2019-12-01 17:00:00 14.2 3 Sudeste 12 Sudeste 0 -- -- 82
2019-12-01 16:00:00 16.5 4 Sur 13 Sur 0 -- -- 74
2019-12-01 15:00:00 16.6 7 Sur 16 Oeste 0 -- -- 69
2019-12-01 14:00:00 18.6 5 Sur 12 Sur 0 -- -- 55
2019-12-01 13:00:00 17.1 5 Norte 14 Sudoeste 0 -- -- 62
2019-12-01 12:00:00 16.7 6 Sudoeste 15 Sur 0 -- -- 74
2019-12-01 11:00:00 15.6 5 Sudoeste 10 Sudoeste 0 -- -- 82
2019-12-01 10:00:00 14.2 0 Calma 4 Norte 0 -- -- 89
2019-12-01 09:00:00 13.2 0 Calma 5 Noroeste 0 -- -- 90
2019-12-01 08:00:00 13.1 2 Noroeste 5 Norte 0 -- -- 88
2019-12-01 07:00:00 11.9 3 Norte 6 Noroeste 0 -- -- 88
2019-12-01 06:00:00 11.9 0 Calma 11 Este 0 -- -- 89
2019-12-01 05:00:00 11.9 3 Este 6 Noroeste 0 -- -- 91
2019-12-01 04:00:00 12.3 5 Noroeste 8 Noroeste 0 -- -- 90
2019-12-01 03:00:00 13.1 0 Calma 4 Oeste 0 -- -- 89
2019-12-01 02:00:00 13.8 0 Calma 5 Noroeste 0 -- -- 87
2019-12-01 01:00:00 13.5 3 Norte 6 Norte 0 -- -- 89
2019-12-01 00:00:00 12.4 4 Norte 5 Norte 0 -- -- 91
2019-11-30 23:00:00 11.8 2 Noroeste 7 Noroeste 0 -- -- 91
2019-11-30 22:00:00 12.8 4 Noroeste 8 Oeste 0 -- -- 90
2019-11-30 21:00:00 13.4 5 Oeste 15 Oeste 0 -- -- 91
2019-11-30 20:00:00 14.2 6 Sudoeste 11 Oeste 0 -- -- 91
2019-11-30 19:00:00 14.3 6 Sudoeste 12 Sudoeste 0 -- -- 91
2019-11-30 18:00:00 14.2 7 Sudoeste 15 Oeste 0 -- -- 90
2019-11-30 17:00:00 15 7 Sudoeste 23 Sudoeste 0 -- -- 86
2019-11-30 16:00:00 15.7 15 Sudoeste 23 Sudoeste 0 -- -- 83
2019-11-30 15:00:00 16.8 12 Sudoeste 23 Sudoeste 0 -- -- 78
2019-11-30 14:00:00 18 10 Sudoeste 20 Sudoeste 0 -- -- 69
2019-11-30 13:00:00 17.9 11 Sudoeste 20 Sudoeste 0 -- -- 67
2019-11-30 12:00:00 19.2 8 Sudoeste 19 Sudoeste 0 -- -- 60
2019-11-30 11:00:00 16.1 8 Sudoeste 15 Sudoeste 0 -- -- 67
2019-11-30 10:00:00 14.3 2 Sur 4 Este 0 -- -- 80
2019-11-30 09:00:00 13.4 0 Calma 8 Norte 0 -- -- 84
2019-11-30 08:00:00 11.1 4 Norte 7 Noroeste 0 -- -- 91
2019-11-30 07:00:00 11.6 6 Noroeste 9 Noroeste 0 -- -- 91
2019-11-30 06:00:00 11.6 4 Norte 8 Norte 0 -- -- 92
2019-11-30 05:00:00 12.3 4 Noroeste 7 Noroeste 0 -- -- 92
2019-11-30 04:00:00 11.6 3 Norte 6 Noroeste 0 -- -- 92
2019-11-30 03:00:00 11.6 3 Norte 7 Norte 0 -- -- 90
2019-11-30 02:00:00 12.5 4 Noroeste 6 Noroeste 0 -- -- 90
2019-11-30 01:00:00 13.3 4 Noroeste 5 Noroeste 0 -- -- 88
2019-11-30 00:00:00 13.5 4 Noroeste 8 Noroeste 0 -- -- 87
2019-11-29 23:00:00 12.3 4 Noroeste 8 Norte 0 -- -- 89
2019-11-29 22:00:00 12.4 5 Noroeste 8 Noroeste 0 -- -- 88
2019-11-29 21:00:00 12.8 2 Norte 7 Noroeste 0 -- -- 88
2019-11-29 20:00:00 13.5 4 Noroeste 6 Noroeste 0 -- -- 86
2019-11-29 19:00:00 14.7 2 Este 7 Este 0 -- -- 83
2019-11-29 18:00:00 14.9 6 Este 11 Este 0 -- -- 82
2019-11-29 17:00:00 15.2 6 Este 15 Este 0 -- -- 81
2019-11-29 16:00:00 15.3 8 Este 17 Este 0 -- -- 82
2019-11-29 15:00:00 15.5 11 Este 19 Este 0 -- -- 80
2019-11-29 14:00:00 15.7 10 Este 20 Este 0 -- -- 82
2019-11-29 13:00:00 15.8 12 Este 22 Este 0 -- -- 80
2019-11-29 12:00:00 17 6 Este 14 Este 0 -- -- 70
2019-11-29 11:00:00 16.4 3 Sur 10 Sudeste 0 -- -- 72
2019-11-29 10:00:00 15.3 6 Este 12 Este 0 -- -- 73
2019-11-29 09:00:00 14.6 2 Norte 7 Noroeste 0 -- -- 75
2019-11-29 08:00:00 13.3 3 Norte 9 Noroeste 0 -- -- 76
2019-11-29 07:00:00 13.5 3 Norte 6 Noroeste 0 -- -- 71
2019-11-29 06:00:00 14.3 4 Oeste 10 Noroeste 0 -- -- 66
2019-11-29 05:00:00 13.6 2 Noroeste 10 Norte 0 -- -- 68
2019-11-29 04:00:00 15.5 5 Noroeste 18 Oeste 0 -- -- 61
2019-11-29 03:00:00 16.2 5 Este 22 Sudoeste 0 -- -- 58
2019-11-29 02:00:00 16.1 10 Oeste 23 Oeste 0 -- -- 57
2019-11-29 01:00:00 16.5 11 Noroeste 29 Oeste 0 -- -- 56
2019-11-29 00:00:00 17 14 Oeste 34 Oeste 0 -- -- 54
2019-11-28 23:00:00 17.7 17 Oeste 33 Oeste 0 -- -- 51
2019-11-28 22:00:00 18.1 14 Oeste 32 Oeste 0 -- -- 51
2019-11-28 21:00:00 17.2 8 Oeste 14 Oeste 0 -- -- 53
2019-11-28 20:00:00 17.3 10 Oeste 24 Oeste 0 -- -- 55
2019-11-28 19:00:00 16.5 9 Oeste 24 Sudoeste 0 -- -- 60
2019-11-28 18:00:00 17 6 Sudoeste 26 Oeste 0 -- -- 58
2019-11-28 17:00:00 17.6 18 Oeste 39 Oeste 0 -- -- 54
2019-11-28 16:00:00 18.4 14 Oeste 34 Sudoeste 0 -- -- 51
2019-11-28 15:00:00 19.7 14 Oeste 36 Oeste 0 -- -- 48
2019-11-28 14:00:00 19.6 11 Oeste 33 Sudoeste 0 -- -- 49
2019-11-28 13:00:00 19.3 16 Oeste 31 Sudoeste 0 -- -- 50
2019-11-28 12:00:00 19.1 11 Oeste 26 Oeste 0 -- -- 53
2019-11-28 11:00:00 17.4 9 Oeste 25 Oeste 0 -- -- 56
2019-11-28 10:00:00 15.6 13 Oeste 27 Noroeste 0 -- -- 59
2019-11-28 09:00:00 14.3 14 Noroeste 30 Noroeste 0 -- -- 63
2019-11-28 08:00:00 13.3 6 Noroeste 19 Oeste 0 -- -- 65
2019-11-28 07:00:00 11.6 2 Nordeste 15 Oeste 0 -- -- 71
2019-11-28 06:00:00 12.1 9 Sudoeste 17 Sudoeste 0 -- -- 69
2019-11-28 05:00:00 13.8 9 Oeste 30 Oeste 0 -- -- 62
2019-11-28 04:00:00 14.7 15 Oeste 30 Oeste 0 -- -- 59
2019-11-28 03:00:00 14.8 13 Oeste 32 Sudoeste 0 -- -- 57
2019-11-28 02:00:00 14.5 11 Sudoeste 22 Oeste 0 -- -- 58
2019-11-28 01:00:00 14.1 10 Oeste 24 Oeste 0 -- -- 58
2019-11-28 00:00:00 14.2 7 Oeste 19 Oeste 0 -- -- 57
2019-11-27 23:00:00 14.6 10 Oeste 16 Oeste 0 -- -- 56
2019-11-27 22:00:00 14 5 Sudoeste 11 Oeste 0 -- -- 60
2019-11-27 21:00:00 13.6 6 Oeste 10 Oeste 0 -- -- 61
2019-11-27 20:00:00 14.5 5 Oeste 15 Oeste 0 -- -- 58
2019-11-27 19:00:00 15.6 4 Oeste 19 Este 0 -- -- 54
2019-11-27 18:00:00 15.9 8 Oeste 27 Noroeste 0 -- -- 52
2019-11-27 17:00:00 16.9 10 Oeste 27 Noroeste 0 -- -- 50
2019-11-27 16:00:00 17.6 9 Oeste 27 Oeste 0 -- -- 49
2019-11-27 15:00:00 18.3 14 Oeste 30 Oeste 0 -- -- 48
2019-11-27 14:00:00 19 15 Oeste 28 Sudoeste 0 -- -- 46
2019-11-27 06:00:00 -- -- -- -- -- -- -- -- --
2019-11-27 05:00:00 -- -- -- -- -- -- -- -- --
2019-11-27 04:00:00 -- -- -- -- -- -- -- -- --
2019-11-27 03:00:00 -- -- -- -- -- -- -- -- --
2019-11-27 02:00:00 13.8 8 Sudoeste 15 Oeste 0 -- -- 72
2019-11-27 01:00:00 14.3 9 Sudoeste 17 Sudoeste 0 -- -- 71
2019-11-27 00:00:00 13.8 3 Sur 12 Oeste 0 -- -- 73
2019-11-26 23:00:00 13.5 5 Sudoeste 20 Sudoeste 0 -- -- 71
2019-11-26 22:00:00 15.9 8 Sudoeste 28 Sudoeste 0 -- -- 62
2019-11-26 21:00:00 15.4 8 Oeste 17 Oeste 0 -- -- 63
2019-11-26 20:00:00 15.2 8 Sudoeste 24 Oeste 0 -- -- 66
2019-11-26 19:00:00 15.7 8 Oeste 19 Sudoeste 0 -- -- 68
2019-11-26 18:00:00 15.8 8 Oeste 22 Sudoeste 0 -- -- 74
2019-11-26 17:00:00 17.3 11 Sudoeste 26 Sudoeste 0 -- -- 69
2019-11-26 16:00:00 17.7 9 Sudoeste 24 Sudoeste 0 -- -- 71
2019-11-26 15:00:00 18.8 13 Sudoeste 33 Sudoeste 0 -- -- 67
2019-11-26 14:00:00 19.3 10 Sudoeste 24 Sudoeste 0 -- -- 60
2019-11-26 13:00:00 19.1 12 Sudoeste 24 Sudoeste 0 -- -- 57
2019-11-26 12:00:00 18.6 13 Oeste 30 Oeste 0 -- -- 58
2019-11-26 11:00:00 16.6 11 Sudoeste 19 Sudoeste 0 -- -- 66
2019-11-26 10:00:00 14.2 3 Sudeste 8 Norte 0 -- -- 74
2019-11-26 09:00:00 10.9 0 Calma 5 Sudeste 0 -- -- 83
2019-11-26 08:00:00 9.9 0 Calma 10 Norte 0 -- -- 84
2019-11-26 07:00:00 10.5 4 Norte 8 Norte 0 -- -- 85
2019-11-26 06:00:00 10.2 0 Calma 4 Norte 0 -- -- 89
2019-11-26 05:00:00 9.8 3 Norte 5 Norte 0 -- -- 89
2019-11-26 04:00:00 9.7 3 Norte 8 Noroeste 0 -- -- 88
2019-11-26 03:00:00 10.1 2 Noroeste 6 Noroeste 0 -- -- 84
2019-11-26 02:00:00 10.8 3 Norte 9 Noroeste 0 -- -- 80
2019-11-26 01:00:00 10.5 3 Noroeste 8 Noroeste 0 -- -- 81
2019-11-26 00:00:00 11.1 5 Norte 9 Noroeste 0 -- -- 82
2019-11-25 23:00:00 11.3 4 Noroeste 6 Noroeste 0 -- -- 86
2019-11-25 22:00:00 11.4 3 Norte 5 Noroeste 0 -- -- 81
2019-11-25 21:00:00 11.7 4 Norte 8 Noroeste 0 -- -- 79
2019-11-25 20:00:00 12.1 4 Noroeste 8 Noroeste 0 -- -- 82
2019-11-25 19:00:00 12.3 2 Norte 8 Noroeste 0 -- -- 77
2019-11-25 18:00:00 12.7 3 Norte 6 Norte 0 -- -- 76
2019-11-25 17:00:00 14.4 0 Calma 6 Este 0 -- -- 67
2019-11-25 16:00:00 16.1 2 Sudeste 8 Sudeste 0 -- -- 62
2019-11-25 15:00:00 16.2 3 Sudeste 8 Sur 0 -- -- 64
2019-11-25 14:00:00 17.4 4 Sudoeste 9 Este 0 -- -- 60
2019-11-25 13:00:00 17.5 4 Sur 9 Sudoeste 0 -- -- 51
2019-11-25 12:00:00 17.8 4 Sudeste 8 Sudeste 0 -- -- 51
2019-11-25 11:00:00 14.8 4 Sudeste 10 Sudeste 0 -- -- 60
2019-11-25 10:00:00 13.5 3 Norte 20 Norte 0 -- -- 55
2019-11-25 09:00:00 12.4 5 Norte 18 Noroeste 0 -- -- 59
2019-11-25 08:00:00 10.5 8 Norte 18 Noroeste 0 -- -- 67
2019-11-25 07:00:00 10.1 10 Norte 23 Noroeste 0 -- -- 69
2019-11-25 06:00:00 10.8 7 Sudoeste 31 Noroeste 0 -- -- 67
2019-11-25 05:00:00 10.3 6 Norte 17 Nordeste 0 -- -- 72
2019-11-25 04:00:00 10.3 5 Noroeste 17 Noroeste 0 -- -- 70
2019-11-25 03:00:00 10.3 5 Nordeste 13 Este 0 -- -- 72
2019-11-25 02:00:00 9.6 2 Noroeste 13 Este 0 -- -- 78
2019-11-25 01:00:00 10.3 3 Este 13 Este 0 -- -- 75
2019-11-25 00:00:00 9.8 0 Calma 12 Nordeste 0 -- -- 75
2019-11-24 23:00:00 10.6 3 Norte 13 Norte 0 -- -- 73
2019-11-24 22:00:00 11.3 4 Noroeste 16 Noroeste 0 -- -- 71
2019-11-24 21:00:00 10.6 6 Noroeste 9 Noroeste 0 -- -- 84
2019-11-24 20:00:00 10.9 5 Norte 8 Noroeste 0 -- -- 83
2019-11-24 19:00:00 11.5 4 Noroeste 6 Norte 0 -- -- 81
2019-11-24 18:00:00 12.3 3 Noroeste 6 Noroeste 0 -- -- 78
2019-11-24 17:00:00 14.1 2 Sur 8 Sur 0 -- -- 69
2019-11-24 16:00:00 15.9 4 Sudoeste 12 Sur 0 -- -- 66
2019-11-24 15:00:00 16 4 Sudeste 12 Sudeste 0 -- -- 64
2019-11-24 14:00:00 15.9 5 Sudeste 15 Sudeste 0 -- -- 63
2019-11-24 13:00:00 15.8 10 Este 16 Este 0 -- -- 64
2019-11-24 12:00:00 16.6 6 Este 15 Este 0 -- -- 60
2019-11-24 11:00:00 15.5 8 Norte 28 Norte 0 -- -- 52
2019-11-24 10:00:00 12.9 12 Norte 32 Norte 0 -- -- 50
2019-11-24 09:00:00 12.2 17 Noroeste 36 Noroeste 0 -- -- 50
2019-11-24 08:00:00 11.4 16 Noroeste 31 Norte 0 -- -- 52
2019-11-24 07:00:00 11.2 14 Norte 29 Noroeste 0 -- -- 54
2019-11-24 06:00:00 9.3 0 Calma 15 Sudoeste 0 -- -- 64
2019-11-24 05:00:00 10.2 6 Sudoeste 10 Oeste 0 -- -- 63
2019-11-24 04:00:00 10.9 3 Oeste 10 Sudoeste 0 -- -- 60
2019-11-24 03:00:00 12.5 3 Sur 12 Nordeste 0 -- -- 51
2019-11-24 02:00:00 12.9 3 Este 39 Noroeste 0 -- -- 51
2019-11-24 01:00:00 13.1 15 Noroeste 43 Noroeste 0 -- -- 50
2019-11-24 00:00:00 13 23 Noroeste 41 Noroeste 0 -- -- 53
2019-11-23 23:00:00 12.6 14 Noroeste 39 Noroeste 0 -- -- 59
2019-11-23 22:00:00 12.2 5 Noroeste 27 Sudoeste 0 -- -- 64
2019-11-23 21:00:00 12.6 10 Oeste 32 Noroeste 0 -- -- 62
2019-11-23 20:00:00 12.6 10 Oeste 38 Noroeste 0 -- -- 64
2019-11-23 19:00:00 13 15 Noroeste 37 Noroeste 0 -- -- 62
2019-11-23 18:00:00 13.4 16 Noroeste 36 Noroeste 0 -- -- 62
2019-11-23 17:00:00 13.5 16 Noroeste 45 Noroeste 0 -- -- 64
2019-11-23 16:00:00 13.9 23 Noroeste 44 Noroeste 0 -- -- 64
2019-11-23 15:00:00 15.7 18 Noroeste 57 Oeste 0 -- -- 58
2019-11-23 14:00:00 15.9 15 Noroeste 49 Oeste 0 -- -- 59
2019-11-23 13:00:00 17.3 14 Noroeste 36 Oeste 0 -- -- 56
2019-11-23 12:00:00 17.2 11 Oeste 33 Oeste 0 -- -- 59
2019-11-23 11:00:00 15.2 16 Noroeste 37 Oeste 0 -- -- 62
2019-11-23 10:00:00 13.2 18 Oeste 33 Oeste 0 -- -- 65
2019-11-23 09:00:00 12.6 10 Oeste 32 Oeste 0 -- -- 71
2019-11-23 08:00:00 12.2 12 Oeste 28 Oeste 0 -- -- 74
2019-11-23 07:00:00 12.6 12 Oeste 23 Oeste 0 -- -- 74
2019-11-23 06:00:00 10.9 8 Oeste 14 Sudoeste 0 -- -- 89
2019-11-23 05:00:00 11.2 6 Oeste 28 Noroeste 0 -- -- 88
2019-11-23 04:00:00 13.4 15 Noroeste 41 Oeste 3.6 -- -- 84
2019-11-23 03:00:00 14.5 10 Oeste 28 Sudoeste 2.4 -- -- 95
2019-11-23 02:00:00 15.2 15 Sudoeste 32 Sudoeste 0.6 -- -- 95
2019-11-23 01:00:00 15.1 18 Sudoeste 40 Sur 6.8 -- -- 95
2019-11-23 00:00:00 15.1 17 Sur 40 Sudoeste 1 -- -- 94
2019-11-22 23:00:00 15.2 17 Sudoeste 39 Sur 0.6 -- -- 94
2019-11-22 22:00:00 15.1 18 Sudoeste 37 Sur 1.2 -- -- 95
2019-11-22 21:00:00 14.9 17 Sudoeste 41 Sudoeste 4.4 -- -- 94
2019-11-22 20:00:00 15.2 14 Sur 40 Sudoeste 2.4 -- -- 93
2019-11-22 19:00:00 14.8 5 Sudoeste 15 Sur 1.2 -- -- 88
2019-11-22 18:00:00 15.1 5 Sur 19 Sudoeste 0 -- -- 81
2019-11-22 17:00:00 15.2 10 Sudoeste 22 Sudoeste 0 -- -- 79
2019-11-22 16:00:00 15.3 6 Sudoeste 16 Sudoeste 0 -- -- 80
2019-11-22 15:00:00 16.6 10 Sudoeste 18 Sudoeste 0 -- -- 75
2019-11-22 14:00:00 17.3 9 Sudoeste 17 Sudoeste 0 -- -- 71
2019-11-22 13:00:00 16 5 Sur 11 Sudoeste 0 -- -- 74
2019-11-22 12:00:00 17.9 3 Sur 8 Sudeste 0 -- -- 68
2019-11-22 11:00:00 15.5 2 Sudoeste 7 Norte 0 -- -- 76
2019-11-22 10:00:00 13.8 3 Norte 6 Norte 0 -- -- 84
2019-11-22 09:00:00 12.8 2 Norte 31 Sudoeste 0.2 -- -- 86
2019-11-22 08:00:00 12 3 Norte 6 Noroeste 0 -- -- 88
2019-11-22 07:00:00 11.7 2 Norte 5 Noroeste 0 -- -- 83
2019-11-22 06:00:00 11.1 2 Noroeste 4 Norte 0 -- -- 84
2019-11-22 05:00:00 11.2 4 Noroeste 9 Oeste 0 -- -- 82
2019-11-22 04:00:00 11.5 4 Noroeste 10 Noroeste 0 -- -- 78
2019-11-22 03:00:00 10.5 5 Noroeste 8 Noroeste 0 -- -- 72
2019-11-22 02:00:00 10.8 2 Norte 11 Oeste 0 -- -- 72
2019-11-22 01:00:00 12.4 6 Oeste 20 Noroeste 0 -- -- 68
2019-11-22 00:00:00 13.3 8 Oeste 21 Oeste 0 -- -- 59
2019-11-21 23:00:00 13 11 Oeste 22 Oeste 0 -- -- 67
2019-11-21 22:00:00 12.7 9 Oeste 26 Oeste 0 -- -- 66
2019-11-21 21:00:00 12.6 13 Oeste 28 Oeste 0 -- -- 65
2019-11-21 20:00:00 12.5 15 Oeste 27 Oeste 0 -- -- 57
2019-11-21 19:00:00 13.1 13 Oeste 32 Oeste 0 -- -- 55
2019-11-21 18:00:00 13.1 10 Oeste 20 Oeste 0 -- -- 55
2019-11-21 17:00:00 14 12 Oeste 23 Oeste 0 -- -- 53
2019-11-21 16:00:00 14.7 12 Oeste 28 Oeste 0 -- -- 53
2019-11-21 15:00:00 15.1 13 Sudoeste 31 Oeste 0 -- -- 54
2019-11-21 14:00:00 14.5 13 Sudoeste 23 Sudoeste 0 -- -- 56
2019-11-21 13:00:00 15.2 6 Oeste 22 Sudoeste 0 -- -- 53
2019-11-21 12:00:00 16 5 Oeste 15 Sudoeste 0 -- -- 51
2019-11-21 11:00:00 15.5 8 Sudoeste 19 Sur 0 -- -- 52
2019-11-21 10:00:00 12.5 4 Este 7 Este 0 -- -- 63
2019-11-21 09:00:00 10.8 2 Nordeste 6 Nordeste 0 -- -- 70
2019-11-21 08:00:00 -- -- -- -- -- -- -- -- --
2019-11-21 07:00:00 -- -- -- -- -- -- -- -- --
2019-11-21 06:00:00 -- -- -- -- -- -- -- -- --
2019-11-21 05:00:00 -- -- -- -- -- -- -- -- --
2019-11-21 04:00:00 -- -- -- -- -- -- -- -- --
2019-11-21 03:00:00 -- -- -- -- -- -- -- -- --
2019-11-21 02:00:00 -- -- -- -- -- -- -- -- --
2019-11-21 01:00:00 -- -- -- -- -- -- -- -- --
2019-11-21 00:00:00 -- -- -- -- -- -- -- -- --
2019-11-20 23:00:00 -- -- -- -- -- -- -- -- --
2019-11-20 22:00:00 -- -- -- -- -- -- -- -- --
2019-11-20 21:00:00 -- -- -- -- -- -- -- -- --
2019-11-20 20:00:00 -- -- -- -- -- -- -- -- --
2019-11-20 19:00:00 11.3 4 Oeste 9 Oeste 0 -- -- 70
2019-11-20 18:00:00 11.8 4 Oeste 14 Sudoeste 0 -- -- 71
2019-11-20 17:00:00 12.6 8 Sudoeste 19 Sudoeste 0 -- -- 69
2019-11-20 16:00:00 13.3 10 Sudoeste 19 Sur 0 -- -- 67
2019-11-20 15:00:00 14.1 9 Sudoeste 18 Sudoeste 0 -- -- 61
2019-11-20 14:00:00 16 10 Sudoeste 18 Oeste 0 -- -- 54
2019-11-20 13:00:00 14.2 10 Oeste 18 Sudoeste 0 -- -- 60
2019-11-20 12:00:00 14 10 Sudoeste 18 Oeste 0 -- -- 59
2019-11-20 11:00:00 14.9 6 Sudoeste 17 Sudoeste 0 -- -- 56
2019-11-20 10:00:00 12.3 7 Oeste 14 Oeste 0 -- -- 62
2019-11-20 09:00:00 11.4 4 Noroeste 9 Oeste 0 -- -- 58
2019-11-20 08:00:00 8.3 5 Noroeste 9 Noroeste 0 -- -- 65
2019-11-20 07:00:00 8.1 6 Norte 13 Noroeste 0 -- -- 65
2019-11-20 06:00:00 9.1 7 Noroeste 14 Noroeste 0 -- -- 61
2019-11-20 05:00:00 5.7 2 Noroeste 8 Oeste 0 -- -- 78
2019-11-20 04:00:00 5.9 3 Noroeste 6 Este 0 -- -- 74
2019-11-20 03:00:00 6 0 Calma 8 Norte 0 -- -- 72
2019-11-20 02:00:00 8.1 4 Noroeste 10 Norte 0 -- -- 65
2019-11-20 01:00:00 7.4 3 Norte 9 Noroeste 0 -- -- 68
2019-11-20 00:00:00 8.3 6 Norte 8 Norte 0 -- -- 68
2019-11-19 23:00:00 8.3 6 Norte 8 Noroeste 0 -- -- 67
2019-11-19 22:00:00 8.6 5 Noroeste 9 Noroeste 0 -- -- 66
2019-11-19 21:00:00 8.9 5 Noroeste 11 Norte 0 -- -- 66
2019-11-19 20:00:00 8.6 4 Noroeste 8 Noroeste 0 -- -- 74
2019-11-19 19:00:00 8.8 3 Norte 8 Noroeste 0 -- -- 72
2019-11-19 18:00:00 9.4 3 Norte 6 Norte 0 -- -- 68
2019-11-19 17:00:00 11.4 3 Sudeste 11 Sudoeste 0 -- -- 59
2019-11-19 16:00:00 12.7 4 Sur 10 Sur 0 -- -- 52
2019-11-19 15:00:00 13.8 7 Sudoeste 14 Sur 0 -- -- 50
2019-11-19 14:00:00 14 5 Sur 12 Sudoeste 0 -- -- 50
2019-11-19 13:00:00 13.9 6 Sudoeste 14 Sudoeste 0 -- -- 50
2019-11-19 12:00:00 13.8 3 Sudeste 10 Sudeste 0 -- -- 60
2019-11-19 11:00:00 12.1 5 Sudeste 12 Este 0 -- -- 62
2019-11-19 10:00:00 10.5 4 Este 15 Norte 0 -- -- 63
2019-11-19 09:00:00 8.9 10 Norte 30 Nordeste 0 -- -- 52
2019-11-19 08:00:00 8.1 11 Noroeste 30 Noroeste 0 -- -- 52
2019-11-19 07:00:00 7.6 7 Oeste 19 Oeste 0 -- -- 56
2019-11-19 06:00:00 8.3 8 Noroeste 29 Norte 0 -- -- 56
2019-11-19 05:00:00 8 7 Noroeste 13 Oeste 0 -- -- 69
2019-11-19 04:00:00 7.6 0 Calma 15 Noroeste 0 -- -- 72
2019-11-19 03:00:00 8.7 6 Noroeste 10 Noroeste 0 -- -- 72
2019-11-19 02:00:00 8.7 4 Noroeste 13 Oeste 0 -- -- 72
2019-11-19 01:00:00 8.3 4 Noroeste 9 Norte 0 -- -- 74
2019-11-19 00:00:00 8.5 2 Nordeste 10 Norte 0 -- -- 69
2019-11-18 23:00:00 9.5 2 Noroeste 15 Norte 0 -- -- 68
2019-11-18 22:00:00 11 7 Noroeste 13 Norte 0 -- -- 63
2019-11-18 21:00:00 11 6 Este 21 Noroeste 0 -- -- 63
2019-11-18 20:00:00 11.3 10 Norte 18 Norte 0 -- -- 67
2019-11-18 19:00:00 12 5 Noroeste 14 Oeste 0 -- -- 71
2019-11-18 18:00:00 12.5 3 Sur 14 Sur 0 -- -- 69
2019-11-18 17:00:00 13.2 6 Sudoeste 10 Sudoeste 0 -- -- 58
2019-11-18 16:00:00 13.6 2 Sudeste 15 Este 0 -- -- 55
2019-11-18 15:00:00 13.5 8 Sudeste 23 Nordeste 0 -- -- 55
2019-11-18 14:00:00 14.3 8 Este 22 Este 0 -- -- 52
2019-11-18 13:00:00 13.5 12 Nordeste 31 Norte 0 -- -- 56
2019-11-18 12:00:00 13.8 15 Nordeste 35 Este 0 -- -- 59
2019-11-18 11:00:00 13 17 Este 31 Este 0 -- -- 63
2019-11-18 10:00:00 11.5 9 Nordeste 21 Este 0 -- -- 64
2019-11-18 09:00:00 10.6 9 Nordeste 29 Norte 0 -- -- 68
2019-11-18 08:00:00 10.3 12 Norte 26 Norte 0 -- -- 70
2019-11-18 07:00:00 10.1 7 Norte 19 Norte 0 -- -- 72
2019-11-18 06:00:00 9.2 4 Nordeste 15 Nordeste 0 -- -- 72
2019-11-18 05:00:00 9.4 7 Norte 14 Norte 0 -- -- 68
2019-11-18 04:00:00 9.2 9 Norte 19 Norte 0 -- -- 67
2019-11-18 03:00:00 9.3 5 Nordeste 12 Noroeste 0 -- -- 73
2019-11-18 02:00:00 8.5 2 Nordeste 6 Este 0 -- -- 75
2019-11-18 01:00:00 9.8 3 Norte 10 Nordeste 0 -- -- 69
2019-11-18 00:00:00 10.4 5 Noroeste 9 Norte 0 -- -- 67
2019-11-17 23:00:00 11.2 0 Calma 13 Oeste 0 -- -- 63
2019-11-17 22:00:00 12.1 9 Noroeste 15 Noroeste 0 -- -- 60
2019-11-17 21:00:00 11.6 6 Oeste 14 Oeste 0 -- -- 62
2019-11-17 20:00:00 10.6 4 Norte 7 Oeste 0 -- -- 65
2019-11-17 19:00:00 11.5 3 Noroeste 21 Noroeste 0 -- -- 62
2019-11-17 18:00:00 11.5 10 Oeste 18 Oeste 0 -- -- 61
2019-11-17 17:00:00 12.4 4 Oeste 21 Oeste 0 -- -- 58
2019-11-17 16:00:00 12.9 6 Sudoeste 19 Oeste 0 -- -- 57
2019-11-17 15:00:00 13.7 4 Oeste 20 Oeste 0 -- -- 52
2019-11-17 14:00:00 14.1 4 Este 14 Sudeste 0 -- -- 51
2019-11-17 13:00:00 14.4 5 Sur 16 Oeste 0 -- -- 50
2019-11-17 12:00:00 14.7 4 Sudoeste 11 Sudoeste 0 -- -- 46
2019-11-17 11:00:00 11 4 Este 23 Nordeste 0 -- -- 56
2019-11-17 10:00:00 8.7 5 Este 18 Oeste 0 -- -- 62
2019-11-17 09:00:00 7.4 6 Nordeste 17 Noroeste 0 -- -- 65
2019-11-17 08:00:00 6.6 6 Nordeste 15 Norte 0 -- -- 69
2019-11-17 07:00:00 5.6 3 Oeste 19 Nordeste 0 -- -- 70
2019-11-17 06:00:00 6.1 4 Norte 17 Nordeste 0 -- -- 70
2019-11-17 05:00:00 7.3 5 Nordeste 27 Oeste 0 -- -- 64
2019-11-17 04:00:00 7.3 3 Oeste 27 Noroeste 0 -- -- 63
2019-11-17 03:00:00 8.5 14 Noroeste 28 Noroeste 0 -- -- 60
2019-11-17 02:00:00 8 15 Noroeste 35 Noroeste 0 -- -- 62
2019-11-17 01:00:00 8.2 16 Noroeste 33 Noroeste 0 -- -- 62
2019-11-17 00:00:00 8.7 11 Noroeste 30 Noroeste 0 -- -- 62
2019-11-16 23:00:00 8.4 16 Noroeste 33 Noroeste 0 -- -- 64
2019-11-16 22:00:00 8.1 18 Noroeste 36 Oeste 0 -- -- 65
2019-11-16 21:00:00 8 16 Noroeste 35 Noroeste 0 -- -- 65
2019-11-16 20:00:00 7.4 5 Sudoeste 23 Norte 0 -- -- 64
2019-11-16 19:00:00 8.1 6 Sudoeste 30 Noroeste 0 -- -- 59
2019-11-16 18:00:00 9.4 12 Oeste 31 Noroeste 0 -- -- 53
2019-11-16 17:00:00 11.6 13 Oeste 28 Sudoeste 0 -- -- 45
2019-11-16 16:00:00 13.5 16 Oeste 26 Oeste 0 -- -- 53
2019-11-16 15:00:00 14 14 Oeste 24 Oeste 0 -- -- 50
2019-11-16 14:00:00 14.8 8 Sudoeste 20 Sur 0 -- -- 51
2019-11-16 13:00:00 14.8 9 Sudoeste 17 Sudoeste 0 -- -- 54
2019-11-16 12:00:00 14.8 4 Sudeste 11 Sur 0 -- -- 56
2019-11-16 11:00:00 13.1 7 Norte 18 Noroeste 0 -- -- 58
2019-11-16 10:00:00 11.5 4 Norte 12 Norte 0 -- -- 63
2019-11-16 09:00:00 10.7 8 Norte 15 Noroeste 0 -- -- 64
2019-11-16 08:00:00 8.7 9 Norte 15 Noroeste 0 -- -- 70
2019-11-16 07:00:00 8.3 7 Norte 12 Noroeste 0 -- -- 73
2019-11-16 06:00:00 8.7 8 Norte 13 Noroeste 0 -- -- 68
2019-11-16 05:00:00 8.2 7 Norte 12 Norte 0 -- -- 70
2019-11-16 04:00:00 8.6 7 Norte 12 Norte 0 -- -- 69
2019-11-16 03:00:00 7.8 5 Norte 14 Noroeste 0 -- -- 75
2019-11-16 02:00:00 7.2 8 Norte 12 Norte 0 -- -- 71
2019-11-16 01:00:00 7.2 7 Norte 13 Norte 0 -- -- 70
2019-11-16 00:00:00 7.6 6 Norte 17 Norte 0 -- -- 68
2019-11-15 23:00:00 7.7 5 Oeste 17 Oeste 0 -- -- 70
2019-11-15 22:00:00 8.1 3 Noroeste 17 Sudoeste 0 -- -- 68
2019-11-15 21:00:00 9 9 Oeste 30 Noroeste 0 -- -- 64
2019-11-15 20:00:00 9.5 16 Oeste 31 Oeste 0 -- -- 62
2019-11-15 19:00:00 10 13 Oeste 35 Oeste 0 -- -- 59
2019-11-15 18:00:00 9.6 14 Oeste 26 Oeste 0 -- -- 60
2019-11-15 17:00:00 10.6 14 Oeste 36 Oeste 0 -- -- 57
2019-11-15 16:00:00 12 15 Oeste 28 Noroeste 0 -- -- 54
2019-11-15 15:00:00 12.6 8 Noroeste 23 Oeste 0 -- -- 53
2019-11-15 14:00:00 13.2 12 Oeste 24 Oeste 0 -- -- 49
2019-11-15 13:00:00 12.7 9 Oeste 19 Oeste 0 -- -- 53
2019-11-15 12:00:00 12.9 2 Sudeste 9 Norte 0 -- -- 56
2019-11-15 11:00:00 10.9 6 Norte 12 Noroeste 0 -- -- 58
2019-11-15 10:00:00 9.2 7 Norte 19 Norte 0 -- -- 64
2019-11-15 09:00:00 8.4 10 Norte 19 Norte 0 -- -- 67
2019-11-15 08:00:00 8 8 Norte 16 Norte 0 -- -- 68
2019-11-15 07:00:00 7.9 2 Nordeste 13 Noroeste 0 -- -- 65
2019-11-15 06:00:00 8 10 Norte 15 Norte 0 -- -- 66
2019-11-15 05:00:00 8 9 Norte 15 Noroeste 0 -- -- 67
2019-11-15 04:00:00 7.6 3 Noroeste 13 Norte 0 -- -- 71
2019-11-15 03:00:00 7.1 4 Noroeste 10 Norte 0 -- -- 75
2019-11-15 02:00:00 6.5 6 Noroeste 9 Noroeste 0 -- -- 81
2019-11-15 01:00:00 6.9 6 Noroeste 9 Noroeste 0 -- -- 86
2019-11-15 00:00:00 6.4 5 Noroeste 9 Noroeste 0 -- -- 84
2019-11-14 23:00:00 6.3 3 Norte 8 Noroeste 0 -- -- 81
2019-11-14 22:00:00 6.7 4 Noroeste 7 Noroeste 0 -- -- 81
2019-11-14 21:00:00 7.1 4 Noroeste 7 Noroeste 0 -- -- 81
2019-11-14 20:00:00 7.6 4 Noroeste 10 Norte 0 -- -- 77
2019-11-14 19:00:00 8.6 5 Noroeste 14 Noroeste 0 -- -- 77
2019-11-14 18:00:00 9.5 9 Noroeste 23 Oeste 0 -- -- 69
2019-11-14 17:00:00 10.3 6 Oeste 14 Oeste 0 -- -- 74
2019-11-14 16:00:00 11 4 Oeste 18 Sudoeste 0 -- -- 79
2019-11-14 15:00:00 12.4 2 Nordeste 14 Nordeste 0 -- -- 74
2019-11-14 14:00:00 13 4 Este 32 Noroeste 0 -- -- 70
2019-11-14 13:00:00 13.1 21 Noroeste 38 Noroeste 0 -- -- 72
2019-11-14 12:00:00 11.5 20 Noroeste 47 Noroeste 0.2 -- -- 79
2019-11-14 11:00:00 14.5 7 Noroeste 19 Oeste 0 -- -- 68
2019-11-14 10:00:00 13.8 10 Noroeste 26 Oeste 0 -- -- 70
2019-11-14 09:00:00 13.8 12 Oeste 31 Oeste 0 -- -- 88
2019-11-14 08:00:00 11.9 3 Norte 21 Oeste 0.6 -- -- 88
2019-11-14 07:00:00 12.1 9 Oeste 25 Sudoeste 1.8 -- -- 87
2019-11-14 06:00:00 12.7 7 Sudoeste 22 Sudoeste 0.2 -- -- 81
2019-11-14 05:00:00 12.4 7 Oeste 17 Sudoeste 0 -- -- 72
2019-11-14 04:00:00 12.5 2 Sudoeste 14 Oeste 0 -- -- 57
2019-11-14 03:00:00 12 8 Oeste 18 Oeste 0 -- -- 54
2019-11-14 02:00:00 12.2 10 Oeste 19 Oeste 0 -- -- 53
2019-11-14 01:00:00 11.5 5 Oeste 15 Oeste 0 -- -- 61
2019-11-14 00:00:00 10.3 3 Noroeste 11 Oeste 0 -- -- 71
2019-11-13 23:00:00 11.7 4 Noroeste 12 Oeste 0 -- -- 69
2019-11-13 22:00:00 11.8 4 Oeste 12 Oeste 0 -- -- 78
2019-11-13 21:00:00 11.5 5 Oeste 13 Oeste 0 -- -- 78
2019-11-13 20:00:00 11.9 6 Oeste 14 Oeste 0 -- -- 77
2019-11-13 19:00:00 12.1 6 Oeste 19 Sudoeste 0 -- -- 75
2019-11-13 18:00:00 12.6 8 Sudoeste 21 Sudoeste 0 -- -- 75
2019-11-13 17:00:00 13.9 10 Sudoeste 22 Sudoeste 0 -- -- 69
2019-11-13 16:00:00 15.3 8 Sudoeste 23 Sudoeste 0 -- -- 59
2019-11-13 15:00:00 16.1 9 Sudoeste 17 Sudoeste 0 -- -- 57
2019-11-13 14:00:00 15 4 Norte 10 Norte 0 -- -- 60
2019-11-13 13:00:00 13.4 4 Norte 12 Noroeste 0 -- -- 64
2019-11-13 12:00:00 13.5 6 Norte 19 Norte 0 -- -- 62
2019-11-13 11:00:00 13.4 5 Noroeste 12 Norte 0 -- -- 63
2019-11-13 10:00:00 12.8 6 Norte 13 Norte 0 -- -- 64
2019-11-13 09:00:00 12.7 6 Norte 13 Noroeste 0 -- -- 67
2019-11-13 08:00:00 12.1 6 Norte 12 Norte 0 -- -- 66
2019-11-13 07:00:00 12.4 4 Norte 14 Norte 0 -- -- 68
2019-11-13 06:00:00 11.7 6 Norte 17 Noroeste 0 -- -- 65
2019-11-13 05:00:00 11.8 9 Noroeste 17 Norte 0 -- -- 62
2019-11-13 04:00:00 11.1 9 Norte 18 Noroeste 0 -- -- 65
2019-11-13 03:00:00 11.3 5 Noroeste 15 Noroeste 0 -- -- 64
2019-11-13 02:00:00 10.9 6 Norte 19 Norte 0 -- -- 65
2019-11-13 01:00:00 11.8 10 Norte 23 Noroeste 0 -- -- 62
2019-11-13 00:00:00 12.3 9 Noroeste 20 Norte 0 -- -- 62
2019-11-12 23:00:00 11.5 6 Noroeste 8 Noroeste 0 -- -- 71
2019-11-12 22:00:00 12.3 5 Noroeste 12 Norte 0 -- -- 66
2019-11-12 21:00:00 12.8 6 Norte 13 Norte 0 -- -- 63
2019-11-12 20:00:00 12.6 6 Norte 10 Norte 0 -- -- 61
2019-11-12 19:00:00 12.9 4 Nordeste 11 Oeste 0 -- -- 57
2019-11-12 18:00:00 12.3 4 Noroeste 7 Noroeste 0 -- -- 63
2019-11-12 17:00:00 14.6 3 Noroeste 5 Noroeste 0 -- -- 55
2019-11-12 16:00:00 15.3 0 Calma 13 Este 0 -- -- 51
2019-11-12 15:00:00 14.7 6 Sudeste 12 Sudeste 0 -- -- 54
2019-11-12 14:00:00 14.9 4 Sudeste 12 Este 0 -- -- 56
2019-11-12 13:00:00 15.6 5 Sudeste 16 Sudeste 0 -- -- 55
2019-11-12 12:00:00 14.5 11 Este 20 Este 0 -- -- 56
2019-11-12 11:00:00 14.8 10 Este 17 Este 0 -- -- 48
2019-11-12 10:00:00 12.2 7 Sudeste 14 Este 0 -- -- 56
2019-11-12 09:00:00 11 0 Calma 8 Este 0 -- -- 56
2019-11-12 08:00:00 9.8 4 Oeste 15 Noroeste 0 -- -- 61
2019-11-12 07:00:00 9.6 3 Norte 9 Noroeste 0 -- -- 61
2019-11-12 06:00:00 9.8 3 Norte 7 Oeste 0 -- -- 60
2019-11-12 05:00:00 10.3 4 Norte 8 Norte 0 -- -- 55
2019-11-12 04:00:00 9.1 3 Norte 6 Norte 0 -- -- 60
2019-11-12 03:00:00 11.1 5 Noroeste 12 Noroeste 0 -- -- 50
2019-11-12 02:00:00 11.1 4 Noroeste 8 Noroeste 0 -- -- 55
2019-11-12 01:00:00 11.1 5 Norte 16 Norte 0 -- -- 54
2019-11-12 00:00:00 11.5 9 Norte 17 Noroeste 0 -- -- 49
2019-11-11 23:00:00 11.9 9 Norte 23 Norte 0 -- -- 52
2019-11-11 22:00:00 11.5 6 Norte 15 Nordeste 0 -- -- 53
2019-11-11 21:00:00 11.4 7 Norte 29 Norte 0 -- -- 49
2019-11-11 20:00:00 12.6 9 Noroeste 33 Noroeste 0 -- -- 44
2019-11-11 19:00:00 12.7 18 Noroeste 35 Noroeste 0 -- -- 46
2019-11-11 18:00:00 13.2 14 Noroeste 26 Noroeste 0 -- -- 47
2019-11-11 17:00:00 14.5 3 Sudeste 16 Oeste 0 -- -- 43
2019-11-11 16:00:00 16.6 9 Oeste 13 Sudoeste 0 -- -- 36
2019-11-11 15:00:00 17.8 4 Sudoeste 10 Sudeste 0 -- -- 35
2019-11-11 14:00:00 17.7 3 Sur 10 Este 0 -- -- 34
2019-11-11 13:00:00 16.2 5 Sudeste 23 Noroeste 0 -- -- 38
2019-11-11 12:00:00 15.5 10 Noroeste 28 Noroeste 0 -- -- 35
2019-11-11 11:00:00 13.9 4 Sur 12 Noroeste 0 -- -- 36
2019-11-11 10:00:00 13 4 Sur 30 Norte 0 -- -- 37
2019-11-11 09:00:00 11.5 14 Norte 35 Noroeste 0 -- -- 36
2019-11-11 08:00:00 10.2 19 Noroeste 37 Noroeste 0 -- -- 41
2019-11-11 07:00:00 10 20 Noroeste 39 Norte 0 -- -- 45
2019-11-11 06:00:00 8.8 12 Oeste 23 Sudoeste 0 -- -- 52
2019-11-11 05:00:00 8.2 3 Sur 26 Norte 0 -- -- 55
2019-11-11 04:00:00 8.7 14 Norte 35 Noroeste 0 -- -- 56
2019-11-11 03:00:00 9.5 17 Noroeste 33 Noroeste 0 -- -- 54
2019-11-11 02:00:00 8.6 6 Este 23 Norte 0 -- -- 63
2019-11-11 01:00:00 8.2 5 Norte 15 Norte 0 -- -- 71
2019-11-11 00:00:00 8.5 3 Oeste 15 Norte 0 -- -- 68
2019-11-10 23:00:00 8.3 0 Calma 12 Norte 0 -- -- 72
2019-11-10 22:00:00 9.5 5 Este 15 Norte 0 -- -- 69
2019-11-10 21:00:00 10.4 8 Norte 21 Norte 0 -- -- 68
2019-11-10 20:00:00 10.3 8 Norte 15 Norte 0 -- -- 73
2019-11-10 19:00:00 10.2 5 Noroeste 8 Noroeste 0 -- -- 72
2019-11-10 18:00:00 10.5 5 Noroeste 9 Este 0 -- -- 74
2019-11-10 17:00:00 12.8 6 Este 14 Este 0 -- -- 63
2019-11-10 16:00:00 13.3 8 Este 19 Este 0 -- -- 63
2019-11-10 15:00:00 13.3 12 Este 21 Este 0 -- -- 66
2019-11-10 14:00:00 13.6 7 Sudeste 12 Este 0 -- -- 61
2019-11-10 13:00:00 14.2 4 Este 16 Sudoeste 0 -- -- 58
2019-11-10 12:00:00 12.1 8 Sur 20 Oeste 0 -- -- 68
2019-11-10 11:00:00 11.5 5 Oeste 19 Oeste 0 -- -- 75
2019-11-10 10:00:00 10.1 8 Oeste 20 Noroeste 0 -- -- 84
2019-11-10 09:00:00 8.9 4 Sudeste 9 Este 0 -- -- 91
2019-11-10 08:00:00 8.3 5 Noroeste 10 Oeste 0 -- -- 91
2019-11-10 07:00:00 8.5 5 Noroeste 14 Nordeste 0.8 -- -- 89
2019-11-10 06:00:00 8.4 4 Sur 25 Norte 3.8 -- -- 89
2019-11-10 05:00:00 9.2 12 Norte 25 Norte 1.2 -- -- 84
2019-11-10 04:00:00 11.7 8 Norte 20 Norte 0.2 -- -- 69
2019-11-10 03:00:00 12.3 3 Norte 15 Norte 0 -- -- 62
2019-11-10 02:00:00 12.6 8 Norte 25 Norte 0 -- -- 61
2019-11-10 01:00:00 11.7 2 Noroeste 9 Oeste 0 -- -- 65
2019-11-10 00:00:00 12.3 5 Oeste 12 Oeste 0 -- -- 62
2019-11-09 23:00:00 13.1 7 Sudoeste 18 Oeste 0 -- -- 58
2019-11-09 22:00:00 12.9 4 Sur 18 Oeste 0 -- -- 57
2019-11-09 21:00:00 13.1 11 Oeste 43 Oeste 0 -- -- 58
2019-11-09 20:00:00 13.9 15 Oeste 35 Noroeste 0 -- -- 56
2019-11-09 19:00:00 12.7 8 Oeste 14 Oeste 0 -- -- 58
2019-11-09 18:00:00 13.1 6 Oeste 18 Sudoeste 0 -- -- 55
2019-11-09 17:00:00 14.7 10 Sudoeste 18 Oeste 0 -- -- 51
2019-11-09 16:00:00 16.6 6 Sudoeste 12 Sudoeste 0 -- -- 47
2019-11-09 15:00:00 15.6 4 Oeste 10 Noroeste 0 -- -- 47
2019-11-09 14:00:00 15.3 5 Oeste 23 Sudoeste 0 -- -- 46
2019-11-09 13:00:00 17.8 5 Sudoeste 16 Sudoeste 0 -- -- 43
2019-11-09 12:00:00 17.9 5 Sur 14 Sur 0 -- -- 44
2019-11-09 11:00:00 16.7 5 Sudeste 23 Oeste 0 -- -- 43
2019-11-09 10:00:00 12.6 3 Sudeste 13 Sudeste 0 -- -- 55
2019-11-09 09:00:00 12.7 10 Este 32 Noroeste 0 -- -- 48
2019-11-09 08:00:00 10.3 16 Noroeste 36 Noroeste 0 -- -- 55
2019-11-09 07:00:00 9.6 16 Noroeste 34 Noroeste 0 -- -- 57
2019-11-09 06:00:00 8.4 10 Noroeste 28 Noroeste 0 -- -- 64
2019-11-09 05:00:00 5.9 3 Sudoeste 6 Sudoeste 0 -- -- 73
2019-11-09 04:00:00 6.5 0 Calma 14 Noroeste 0 -- -- 70
2019-11-09 03:00:00 7.9 5 Noroeste 18 Noroeste 0 -- -- 65
2019-11-09 02:00:00 8 7 Noroeste 20 Noroeste 0 -- -- 65
2019-11-09 01:00:00 8.8 9 Noroeste 34 Noroeste 0 -- -- 62
2019-11-09 00:00:00 9.2 14 Noroeste 32 Noroeste 0 -- -- 62
2019-11-08 23:00:00 9.6 18 Noroeste 36 Noroeste 0 -- -- 61
2019-11-08 22:00:00 9.9 12 Noroeste 37 Noroeste 0 -- -- 61
2019-11-08 21:00:00 10.5 15 Noroeste 37 Noroeste 0 -- -- 60
2019-11-08 20:00:00 11.2 13 Noroeste 31 Oeste 0 -- -- 58
2019-11-08 19:00:00 11.8 10 Sudoeste 31 Oeste 0 -- -- 56
2019-11-08 18:00:00 12.8 17 Oeste 46 Oeste 0 -- -- 52
2019-11-08 17:00:00 14 10 Oeste 31 Oeste 0 -- -- 48
2019-11-08 16:00:00 14.9 14 Oeste 26 Oeste 0 -- -- 48
2019-11-08 15:00:00 15.4 8 Noroeste 28 Oeste 0 -- -- 46
2019-11-08 14:00:00 15.6 9 Oeste 28 Oeste 0 -- -- 44
2019-11-08 13:00:00 14.7 9 Oeste 32 Noroeste 0 -- -- 46
2019-11-08 12:00:00 13.8 17 Noroeste 40 Noroeste 0 -- -- 45
2019-11-08 11:00:00 14.1 7 Oeste 37 Oeste 0 -- -- 46
2019-11-08 10:00:00 10.7 18 Noroeste 42 Noroeste 0 -- -- 53
2019-11-08 09:00:00 10.3 10 Noroeste 22 Oeste 0 -- -- 56
2019-11-08 08:00:00 8.5 5 Oeste 18 Norte 0 -- -- 64
2019-11-08 07:00:00 7.5 3 Sur 8 Noroeste 0 -- -- 67
2019-11-08 06:00:00 8.3 3 Nordeste 10 Este 0 -- -- 65
2019-11-08 05:00:00 9.4 8 Noroeste 26 Oeste 0 -- -- 60
2019-11-08 04:00:00 9.9 5 Oeste 21 Oeste 0 -- -- 59
2019-11-08 03:00:00 10.5 10 Oeste 22 Oeste 0 -- -- 59
2019-11-08 02:00:00 11.6 10 Oeste 20 Oeste 0 -- -- 56
2019-11-08 01:00:00 9.9 2 Sudoeste 8 Noroeste 0 -- -- 64
2019-11-08 00:00:00 10.4 2 Oeste 8 Oeste 0 -- -- 74
2019-11-07 23:00:00 10.9 3 Sudoeste 12 Norte 0 -- -- 67
2019-11-07 22:00:00 11.5 4 Norte 11 Noroeste 0 -- -- 63
2019-11-07 21:00:00 12.3 5 Noroeste 9 Noroeste 0 -- -- 64
2019-11-07 20:00:00 13.8 3 Norte 11 Oeste 0 -- -- 60
2019-11-07 19:00:00 14.6 4 Oeste 11 Oeste 0 -- -- 60
2019-11-07 18:00:00 15.2 6 Oeste 24 Oeste 0 -- -- 55
2019-11-07 17:00:00 16.7 11 Oeste 21 Oeste 0 -- -- 51
2019-11-07 16:00:00 17.7 11 Oeste 22 Oeste 0 -- -- 54
2019-11-07 15:00:00 18.2 9 Sudoeste 25 Sudoeste 0 -- -- 52
2019-11-07 14:00:00 18.3 5 Sudoeste 19 Sudoeste 0 -- -- 52
2019-11-07 13:00:00 18.4 8 Oeste 21 Oeste 0 -- -- 50
2019-11-07 12:00:00 17.6 14 Sudoeste 23 Oeste 0 -- -- 51
2019-11-07 11:00:00 17.7 3 Sur 18 Oeste 0 -- -- 51
2019-11-07 10:00:00 15.7 11 Sudoeste 20 Sudoeste 0 -- -- 53
2019-11-07 09:00:00 17 5 Oeste 24 Oeste 0 -- -- 50
2019-11-07 08:00:00 13.9 12 Oeste 27 Oeste 0 -- -- 58
2019-11-07 07:00:00 12.8 13 Oeste 28 Oeste 0 -- -- 60
2019-11-07 06:00:00 12.5 13 Oeste 30 Sudoeste 0 -- -- 63
2019-11-07 05:00:00 12 16 Oeste 25 Oeste 0 -- -- 66
2019-11-07 04:00:00 11.2 12 Oeste 19 Sudoeste 0 -- -- 68
2019-11-07 03:00:00 12.3 10 Oeste 31 Oeste 0 -- -- 64
2019-11-07 02:00:00 12.4 9 Oeste 23 Oeste 0 -- -- 65
2019-11-07 01:00:00 12.1 9 Oeste 26 Oeste 0 -- -- 68
2019-11-07 00:00:00 11.7 3 Sur 7 Norte 0 -- -- 71
2019-11-06 23:00:00 12.9 6 Norte 10 Norte 0 -- -- 70
2019-11-06 22:00:00 13.1 3 Noroeste 9 Noroeste 0 -- -- 70
2019-11-06 21:00:00 13.2 3 Norte 6 Noroeste 0 -- -- 72
2019-11-06 20:00:00 14 3 Norte 9 Este 0 -- -- 70
2019-11-06 19:00:00 14.8 7 Noroeste 12 Noroeste 0 -- -- 71
2019-11-06 18:00:00 15.7 2 Sudeste 12 Sur 0 -- -- 67
2019-11-06 17:00:00 17.2 2 Sudeste 22 Sur 0 -- -- 61
2019-11-06 16:00:00 18.3 8 Sur 15 Sur 0 -- -- 56
2019-11-06 15:00:00 19 8 Sur 22 Sudoeste 0 -- -- 50
2019-11-06 14:00:00 19 9 Oeste 24 Oeste 0 -- -- 46
2019-11-06 13:00:00 18.4 5 Sur 22 Norte 0 -- -- 49
2019-11-06 12:00:00 17.8 7 Oeste 28 Oeste 0 -- -- 49
2019-11-06 11:00:00 16.2 11 Noroeste 29 Noroeste 0 -- -- 51
2019-11-06 10:00:00 13.4 14 Noroeste 30 Noroeste 0 -- -- 58
2019-11-06 09:00:00 13.5 13 Noroeste 28 Oeste 0 -- -- 56
2019-11-06 08:00:00 11.6 11 Noroeste 23 Oeste 0 -- -- 62
2019-11-06 07:00:00 10.5 5 Nordeste 28 Noroeste 0 -- -- 65
2019-11-06 06:00:00 10.8 11 Oeste 40 Noroeste 0 -- -- 65
2019-11-06 05:00:00 11.1 20 Noroeste 42 Noroeste 0 -- -- 65
2019-11-06 04:00:00 10.8 9 Noroeste 31 Oeste 0 -- -- 65
2019-11-06 03:00:00 11.3 0 Calma 23 Noroeste 0 -- -- 62
2019-11-06 02:00:00 12.1 17 Noroeste 43 Norte 0 -- -- 60
2019-11-06 01:00:00 11.9 3 Nordeste 14 Norte 0 -- -- 61
2019-11-06 00:00:00 12.7 6 Este 13 Este 0 -- -- 59